AirNav   Everest Fuels
 
 521 users online  

MA87 Cape Air Seaplanes on Boston Harbor Seaplane Base
Boston, Massachusetts, USA

GOING TO BOSTON?


FAA INFORMATION EFFECTIVE 07 NOVEMBER 2019

Location

FAA Identifier: MA87
Lat/Long: 42-21-09.0000N 071-01-33.0000W
42-21.150000N 071-01.550000W
42.3525000,-71.0258333
(estimated)
Elevation: 0 ft. / 0 m
From city: 1 mile SE of BOSTON, MA
Time zone: UTC -5 (UTC -4 during Daylight Saving Time)
Zip code: 02127

Seaplane Base Operations

Seaplane Base use: Private use. Permission required prior to landing
Activation date: 09/2016
Control tower: no
ARTCC: BOSTON CENTER
FSS: BRIDGEPORT FLIGHT SERVICE STATION
Attendance: 
Segmented circle: no

Seaplane Base Communications

WX ASOS at BOS (1.1 nm NE): PHONE 617-567-5762
WX ASOS at OWD (12 nm SW): 119.95 (781-762-4314)
WX ASOS at BED (14 nm NW): 124.6 (781-274-9733)
WX ASOS at BVY (15 nm N): PHONE 978-921-5042

Nearby radio navigation aids

VOR radial/distance  VOR name  Freq  Var
BOSr276/1.6BOSTON VOR/DME112.7016W
LWMr188/23.5LAWRENCE VOR/DME112.5015W
MHTr169/34.5MANCHESTER VOR/DME114.4015W

 
NDB name  Hdg/Dist  Freq  Var  ID
SHAKER HILL148/9.225116WSKR ... -.- .-.
STOGE033/14.739715WOW --- .--
MARSHFIELD330/21.836816WIMR .. -- .-.
TAUNTON015/28.622716WTAN - .- -.
PROVINCETOWN312/39.538916WPVC .--. ...- -.-.

Seaplane Base Services

Runway Information

Runway 14W/32W

Dimensions: 2500 x 60 ft. / 762 x 18 m
Surface: water
RUNWAY 14W  RUNWAY 32W
Latitude: 42-21.150000N
Longitude: 071-01.550000W
Elevation: 0.0 ft.
Traffic pattern: leftleft

Seaplane Base Ownership and Management from official FAA records

Ownership: Privately-owned
Owner: HYANNIS AIR SERVICE, INC
660 BARNSTABLE RD
HYANNIS, MA 02601
Phone 508-862-9719
Manager: ANDREW BONNEY
660 BARNSTABLE RD
HYANNIS, MA 02601
Phone 508-862-9719

Additional Remarks

FOR CD CTC BOSTON ARTCC AT 603-879-6859.
IATA ID: BNH.

Instrument Procedures

There are no published instrument procedures at MA87.

Some nearby airports with instrument procedures:

KBOS - General Edward Lawrence Logan International Airport (1 nm NE)
KOWD - Norwood Memorial Airport (12 nm SW)
KBED - Laurence G Hanscom Field Airport (14 nm NW)
KBVY - Beverly Regional Airport (15 nm N)
KGHG - Marshfield Municipal Airport - George Harlow Field (22 nm SE)
 
Loc | Ops | Rwys | IFR | FBO | Links
Com | Nav | Svcs | Stats | Notes
Aerial photo
No photo
 
Airport distance calculator
Flying to Cape Air Seaplanes on Boston Harbor Seaplane Base? Find the distance to fly.

From to MA87

Sunrise and sunset
Times for 19-Nov-2019
 Local
(UTC-5)
 Zulu
(UTC)
Morning civil twilight06:1011:10
Sunrise06:4111:41
Sunset16:1821:18
Evening civil twilight16:4921:49

Current date and time
Zulu (UTC)  19-Nov-2019 10:26:35
Local (UTC-5)  19-Nov-2019 05:26:35
 
METAR
KBOS 190954Z 00000KT 10SM BKN009 OVC013 05/02 A2972 RMK AO2 SLP064 T00500022
KMQE 
9nm SW 
190951Z AUTO 00000KT 02/02 A2969 RMK AO1 SLP070 T00220022
KOWD 
12nm SW 
191016Z 00000KT 4SM HZ FEW019 OVC035 05/02 A2972 RMK AO2 T00500022
KBED 
14nm NW 
190951Z AUTO 09003KT 10SM OVC006 04/02 A2971 RMK AO2 SLP075 T00390022 $
KBVY 
15nm N 
191019Z AUTO 00000KT 5SM BR OVC011 03/03 A2972 RMK AO2 T00330028
TAF
KBOS 190525Z 1906/2012 36008KT P6SM -DZ OVC008 FM191100 33004KT 6SM -RA BR OVC008 FM191500 27004KT P6SM SCT008 OVC015 FM191900 28004KT P6SM SCT015 BKN035 FM192200 31003KT P6SM SCT020 OVC030 FM200400 34004KT P6SM BKN008 OVC015
KBED 
14nm NW 
190525Z 1906/2006 36003KT P6SM -DZ OVC008 FM190900 33003KT 6SM -RA BR OVC008 FM191500 00000KT P6SM SCT008 OVC015 FM191900 00000KT P6SM BKN010 FM192100 00000KT P6SM BKN020 FM200300 00000KT P6SM OVC008
NOTAMs
Click for the latest NOTAMs
NOTAMs are issued by the DoD/FAA and will open in a separate window not controlled by AirNav.

 

 
 

Would you like to see your business listed on this page?

 If your business provides an interesting product or service to pilots, flight crews, aircraft, or users of the Cape Air Seaplanes on Boston Harbor Seaplane Base, you should consider listing it here.  To start the listing process, click on the button below
 
Add a business
 

Other Pages about Cape Air Seaplanes on Boston Harbor Seaplane Base

Update a link
 
Copyright © AirNav, LLC. All rights reserved. Privacy Policy  Contact